createdAt,value
2023-04-21T00:01:44.192Z,8.00
2023-04-21T00:04:15.250Z,7.90
2023-04-21T00:06:42.639Z,11.15
2023-04-21T00:09:11.049Z,7.97
2023-04-21T00:11:38.302Z,6.32
2023-04-21T00:14:05.624Z,6.38
2023-04-21T00:16:32.990Z,5.00
2023-04-21T00:19:00.378Z,11.15
2023-04-21T00:21:27.626Z,5.95
2023-04-21T00:23:55.095Z,5.75
2023-04-21T00:26:22.276Z,4.95
2023-04-21T00:28:49.475Z,6.28
2023-04-21T00:31:16.983Z,6.93
2023-04-21T00:33:44.223Z,5.57
2023-04-21T00:36:14.176Z,5.38
2023-04-21T00:38:41.327Z,8.02
2023-04-21T00:41:08.513Z,4.80
2023-04-21T00:43:35.713Z,5.25
2023-04-21T00:46:02.906Z,7.40
2023-04-21T00:48:30.144Z,6.28
2023-04-21T00:50:57.367Z,5.20
2023-04-21T00:53:24.590Z,6.18
2023-04-21T00:55:52.158Z,4.47
2023-04-21T00:58:19.337Z,10.63
2023-04-21T01:00:46.546Z,5.75
2023-04-21T01:03:13.946Z,3.42
2023-04-21T01:05:41.434Z,4.57
2023-04-21T01:08:08.774Z,3.58
2023-04-21T01:10:36.032Z,4.05
2023-04-21T01:13:03.392Z,5.25
2023-04-21T01:15:31.297Z,3.88
2023-04-21T01:17:58.645Z,5.05
2023-04-21T01:20:26.600Z,5.18
2023-04-21T01:22:53.832Z,5.20
2023-04-21T01:25:25.719Z,4.88
2023-04-21T01:27:52.931Z,5.10
2023-04-21T01:30:20.149Z,4.80
2023-04-21T01:32:47.366Z,6.43
2023-04-21T01:35:14.602Z,4.20
2023-04-21T01:37:41.925Z,4.65
2023-04-21T01:40:09.577Z,5.28
2023-04-21T01:42:42.561Z,4.07
2023-04-21T01:45:10.571Z,5.95
2023-04-21T01:47:37.871Z,4.03
2023-04-21T01:50:05.561Z,3.33
2023-04-21T01:52:32.776Z,4.15
2023-04-21T01:55:00.853Z,4.07
2023-04-21T01:57:28.002Z,5.35
2023-04-21T01:59:55.616Z,4.25
2023-04-21T02:02:25.824Z,3.85
2023-04-21T02:04:53.056Z,3.92
2023-04-21T02:07:23.199Z,4.28
2023-04-21T02:09:50.598Z,3.40
2023-04-21T02:12:17.790Z,5.90
2023-04-21T02:14:47.305Z,3.80
2023-04-21T02:17:14.616Z,3.35
2023-04-21T02:19:41.824Z,4.22
2023-04-21T02:22:10.599Z,4.15
2023-04-21T02:24:37.773Z,3.97
2023-04-21T02:27:05.238Z,5.43
2023-04-21T02:29:32.552Z,4.30
2023-04-21T02:32:05.582Z,5.68
2023-04-21T02:34:45.314Z,5.05
2023-04-21T02:37:12.563Z,5.13
2023-04-21T02:39:39.971Z,4.55
2023-04-21T02:42:07.141Z,4.10
2023-04-21T02:44:34.346Z,4.07
2023-04-21T02:47:01.593Z,3.80
2023-04-21T02:49:28.788Z,4.53
2023-04-21T02:51:56.124Z,5.35
2023-04-21T02:54:23.306Z,3.58
2023-04-21T02:56:50.470Z,4.55
2023-04-21T02:59:17.992Z,3.25
2023-04-21T03:01:46.377Z,3.83
2023-04-21T03:04:13.674Z,3.05
2023-04-21T03:06:41.098Z,3.60
2023-04-21T03:09:08.993Z,4.30
2023-04-21T03:11:36.292Z,2.95
2023-04-21T03:14:03.437Z,3.53
2023-04-21T03:16:30.662Z,5.03
2023-04-21T03:18:57.927Z,3.55
2023-04-21T03:21:25.355Z,2.80
2023-04-21T03:23:53.843Z,4.38
2023-04-21T03:26:21.271Z,2.70
2023-04-21T03:28:48.508Z,4.18
2023-04-21T03:31:15.751Z,4.55
2023-04-21T03:33:42.961Z,3.60
2023-04-21T03:36:11.048Z,5.85
2023-04-21T03:38:38.397Z,3.60
2023-04-21T03:41:05.586Z,3.40
2023-04-21T03:43:32.780Z,6.10
2023-04-21T03:46:03.305Z,4.57
2023-04-21T03:48:31.921Z,3.25
2023-04-21T03:50:59.146Z,3.38
2023-04-21T03:53:26.341Z,3.72
2023-04-21T03:55:53.519Z,3.60
2023-04-21T03:58:20.818Z,3.20
2023-04-21T04:00:48.016Z,4.28
2023-04-21T04:03:15.520Z,2.92
2023-04-21T04:05:42.813Z,3.55
2023-04-21T04:08:09.991Z,3.50
2023-04-21T04:10:37.157Z,3.20
2023-04-21T04:13:04.385Z,4.60
2023-04-21T04:15:31.969Z,4.00
2023-04-21T04:18:00.681Z,3.13
2023-04-21T04:20:28.109Z,3.63
2023-04-21T04:22:55.430Z,3.05
2023-04-21T04:25:25.813Z,3.58
2023-04-21T04:27:53.669Z,3.95
2023-04-21T04:30:21.413Z,4.15
2023-04-21T04:32:48.704Z,3.55
2023-04-21T04:35:16.501Z,2.88
2023-04-21T04:37:43.679Z,4.15
2023-04-21T04:40:12.213Z,3.53
2023-04-21T04:42:40.181Z,3.35
2023-04-21T04:45:08.415Z,3.53
2023-04-21T04:47:38.732Z,3.17
2023-04-21T04:50:06.665Z,4.82
2023-04-21T04:52:33.871Z,5.68
2023-04-21T04:55:01.042Z,4.60
2023-04-21T04:57:28.243Z,5.53
2023-04-21T04:59:58.290Z,8.32
2023-04-21T05:02:25.831Z,6.65
2023-04-21T05:04:53.431Z,8.98
2023-04-21T05:07:20.879Z,9.38
2023-04-21T05:09:48.075Z,8.68
2023-04-21T05:12:15.350Z,8.00
2023-04-21T05:14:42.522Z,5.82
2023-04-21T05:17:10.080Z,7.18
2023-04-21T05:19:37.845Z,7.90
2023-04-21T05:22:06.537Z,14.32
2023-04-21T05:24:34.550Z,14.18
2023-04-21T05:27:04.042Z,12.32
2023-04-21T05:29:31.464Z,15.40
2023-04-21T05:31:58.731Z,10.02
2023-04-21T05:34:25.982Z,11.18
2023-04-21T05:36:53.205Z,12.70
2023-04-21T05:39:20.486Z,13.98
2023-04-21T05:41:47.741Z,10.95
2023-04-21T05:44:18.172Z,10.43
2023-04-21T05:46:45.727Z,11.38
2023-04-21T05:49:13.049Z,15.00
2023-04-21T05:51:40.216Z,10.45
2023-04-21T05:54:07.478Z,12.40
2023-04-21T05:56:34.631Z,15.75
2023-04-21T05:59:02.099Z,13.57
2023-04-21T06:01:29.342Z,15.18
2023-04-21T06:03:56.921Z,15.57
2023-04-21T06:06:25.825Z,12.70
2023-04-21T06:08:53.057Z,10.18
2023-04-21T06:11:20.515Z,15.40
2023-04-21T06:13:48.178Z,20.70
2023-04-21T06:16:15.678Z,11.35
2023-04-21T06:18:42.914Z,13.27
2023-04-21T06:21:10.545Z,18.50
2023-04-21T06:23:37.716Z,13.57
2023-04-21T06:26:06.870Z,16.85
2023-04-21T06:28:35.013Z,12.65
2023-04-21T06:31:03.064Z,12.45
2023-04-21T06:33:30.745Z,12.90
2023-04-21T06:35:58.190Z,16.95
2023-04-21T06:38:25.616Z,8.65
2023-04-21T06:40:52.945Z,9.52
2023-04-21T06:43:20.119Z,10.93
2023-04-21T06:45:47.276Z,10.55
2023-04-21T06:48:14.482Z,9.52
2023-04-21T06:50:44.259Z,10.35
2023-04-21T06:53:11.983Z,11.25
2023-04-21T06:55:39.310Z,7.78
2023-04-21T06:58:06.507Z,9.60
2023-04-21T07:00:33.777Z,9.48
2023-04-21T07:03:01.041Z,9.40
2023-04-21T07:05:28.583Z,10.57
2023-04-21T07:07:59.762Z,8.57
2023-04-21T07:10:27.744Z,8.02
2023-04-21T07:12:55.371Z,11.38
2023-04-21T07:15:22.701Z,7.47
2023-04-21T07:17:50.065Z,9.40
2023-04-21T07:20:18.925Z,11.90
2023-04-21T07:22:46.207Z,7.82
2023-04-21T07:25:13.435Z,7.68
2023-04-21T07:27:40.819Z,13.50
2023-04-21T07:30:08.701Z,12.52
2023-04-21T07:32:37.382Z,13.73
2023-04-21T07:35:05.864Z,12.10
2023-04-21T07:37:33.107Z,16.63
2023-04-21T07:40:00.257Z,12.02
2023-04-21T07:42:27.657Z,13.20
2023-04-21T07:44:56.065Z,14.88
2023-04-21T07:47:23.562Z,21.77
2023-04-21T07:49:51.076Z,14.80
2023-04-21T07:52:18.330Z,15.32
2023-04-21T07:54:45.724Z,18.83
2023-04-21T07:57:12.979Z,15.73
2023-04-21T07:59:40.209Z,17.20
2023-04-21T08:02:07.713Z,13.60
2023-04-21T08:04:35.202Z,18.35
2023-04-21T08:07:03.010Z,14.82
2023-04-21T08:09:30.340Z,16.50
2023-04-21T08:11:58.060Z,14.93
2023-04-21T08:14:26.876Z,12.85
2023-04-21T08:16:56.558Z,17.38
2023-04-21T08:19:24.384Z,13.68
2023-04-21T08:21:51.618Z,12.90
2023-04-21T08:24:19.086Z,10.68
2023-04-21T08:26:46.536Z,14.60
2023-04-21T08:29:14.109Z,14.77
2023-04-21T08:31:41.410Z,15.50
2023-04-21T08:34:08.977Z,11.55
2023-04-21T08:36:36.178Z,12.70
2023-04-21T08:39:04.092Z,13.25
2023-04-21T08:41:31.307Z,15.05
2023-04-21T08:43:58.745Z,11.75
2023-04-21T08:46:27.926Z,13.18
2023-04-21T08:48:55.661Z,14.00
2023-04-21T08:51:24.673Z,14.50
2023-04-21T08:53:52.368Z,15.30
2023-04-21T08:56:19.745Z,14.73
2023-04-21T08:58:47.206Z,11.90
2023-04-21T09:01:14.516Z,16.20
2023-04-21T09:03:42.000Z,12.57
2023-04-21T09:06:10.221Z,13.38
2023-04-21T09:08:39.958Z,10.30
2023-04-21T09:11:07.326Z,15.25
2023-04-21T09:13:36.452Z,12.13
2023-04-21T09:16:08.448Z,12.43
2023-04-21T09:18:40.366Z,12.65
2023-04-21T09:21:18.778Z,11.65
2023-04-21T09:23:49.117Z,15.30
2023-04-21T09:26:18.465Z,15.38
2023-04-21T09:28:47.588Z,12.82
2023-04-21T09:31:24.752Z,10.18
2023-04-21T09:34:01.523Z,10.25
2023-04-21T09:36:30.708Z,9.95
2023-04-21T09:41:33.583Z,9.20
2023-04-21T09:46:36.727Z,10.43
2023-04-21T09:49:05.329Z,8.18
2023-04-21T09:56:54.385Z,9.45
2023-04-21T09:59:27.738Z,18.60
2023-04-21T10:01:56.575Z,12.05
2023-04-21T10:04:26.304Z,10.00
2023-04-21T10:06:54.063Z,9.05
2023-04-21T10:09:24.142Z,12.50
2023-04-21T10:11:53.067Z,9.18
2023-04-21T10:17:10.080Z,14.75
2023-04-21T10:19:40.227Z,15.38
2023-04-21T10:22:11.210Z,16.40
2023-04-21T10:24:40.251Z,19.80
2023-04-21T10:27:11.556Z,10.10
2023-04-21T10:29:52.390Z,14.10
2023-04-21T10:32:42.485Z,14.63
2023-04-21T10:35:14.420Z,13.60
2023-04-21T10:37:42.631Z,13.13
2023-04-21T10:40:43.858Z,11.07
2023-04-21T10:43:45.889Z,13.23
2023-04-21T10:46:41.194Z,15.73
2023-04-21T10:49:10.696Z,16.75
2023-04-21T10:52:03.019Z,17.88
2023-04-21T10:54:46.808Z,7.82
2023-04-21T10:57:18.521Z,12.82
2023-04-21T10:59:46.953Z,24.80
2023-04-21T11:02:16.025Z,16.63
2023-04-21T11:04:49.817Z,11.60
2023-04-21T11:07:22.920Z,7.93
2023-04-21T11:09:57.505Z,12.40
2023-04-21T11:12:30.047Z,11.57
2023-04-21T11:14:57.434Z,12.10
2023-04-21T11:17:25.313Z,10.27
2023-04-21T11:19:56.579Z,10.93
2023-04-21T11:22:25.687Z,12.57
2023-04-21T11:24:56.124Z,10.27
2023-04-21T11:27:26.129Z,28.83
2023-04-21T11:29:53.335Z,7.43
2023-04-21T11:32:21.113Z,18.40
2023-04-21T11:34:48.612Z,13.25
2023-04-21T11:37:27.025Z,13.60
2023-04-21T11:40:01.452Z,11.00
2023-04-21T11:42:29.319Z,7.88
2023-04-21T11:44:57.248Z,7.15
2023-04-21T11:47:26.327Z,8.75
2023-04-21T11:49:58.791Z,6.82
2023-04-21T11:52:34.353Z,10.70
2023-04-21T11:55:06.721Z,7.63
2023-04-21T11:57:34.523Z,13.10
2023-04-21T12:00:11.730Z,12.63
2023-04-21T12:02:39.389Z,10.30
2023-04-21T12:05:13.483Z,9.57
2023-04-21T12:07:53.678Z,6.07
2023-04-21T12:10:21.488Z,9.55
2023-04-21T12:12:48.954Z,7.32
2023-04-21T12:15:23.189Z,13.15
2023-04-21T12:17:52.621Z,9.20
2023-04-21T12:20:22.318Z,11.55
2023-04-21T12:22:49.996Z,14.77
2023-04-21T12:25:17.403Z,12.32
2023-04-21T12:27:57.671Z,10.70
2023-04-21T12:30:24.982Z,7.43
2023-04-21T12:32:54.220Z,10.43
2023-04-21T12:35:22.215Z,9.93
2023-04-21T12:37:49.369Z,12.18
2023-04-21T12:40:16.671Z,13.95
2023-04-21T12:42:43.866Z,8.57
2023-04-21T12:45:11.592Z,9.63
2023-04-21T12:47:39.312Z,10.85
2023-04-21T12:50:07.116Z,8.88
2023-04-21T12:52:34.319Z,9.85
2023-04-21T12:55:01.885Z,12.60
2023-04-21T12:57:29.729Z,12.07
2023-04-21T12:59:57.004Z,11.65
2023-04-21T13:02:24.288Z,15.70
2023-04-21T13:04:52.038Z,9.98
2023-04-21T13:07:21.739Z,13.40
2023-04-21T13:09:49.016Z,12.13
2023-04-21T13:12:16.941Z,7.68
2023-04-21T13:14:44.195Z,12.38
2023-04-21T13:17:11.814Z,8.40
2023-04-21T13:19:39.049Z,10.05
2023-04-21T13:22:06.259Z,13.27
2023-04-21T13:24:33.698Z,10.07
2023-04-21T13:27:01.952Z,12.90
2023-04-21T13:29:30.363Z,10.80
2023-04-21T13:31:57.908Z,11.70
2023-04-21T13:34:25.267Z,11.70
2023-04-21T13:36:52.505Z,7.65
2023-04-21T13:39:19.769Z,8.20
2023-04-21T13:41:47.013Z,8.57
2023-04-21T13:44:14.312Z,9.18
2023-04-21T13:46:42.645Z,8.57
2023-04-21T13:49:10.638Z,10.35
2023-04-21T13:51:37.879Z,6.97
2023-04-21T13:54:05.354Z,13.63
2023-04-21T13:56:32.690Z,8.60
2023-04-21T13:59:00.204Z,8.63
2023-04-21T14:01:27.490Z,6.32
2023-04-21T14:03:54.917Z,10.60
2023-04-21T14:06:22.466Z,7.80
2023-04-21T14:08:49.736Z,6.35
2023-04-21T14:11:17.274Z,7.55
2023-04-21T14:14:00.884Z,5.72
2023-04-21T14:16:32.334Z,7.88
2023-04-21T14:18:59.712Z,7.70
2023-04-21T14:21:26.926Z,8.50
2023-04-21T14:23:54.067Z,7.10
2023-04-21T14:26:21.537Z,13.95
2023-04-21T14:28:51.933Z,9.52
2023-04-21T14:31:21.812Z,8.90
2023-04-21T14:33:49.736Z,10.55
2023-04-21T14:36:16.952Z,9.38
2023-04-21T14:38:44.224Z,12.10
2023-04-21T14:41:11.693Z,7.75
2023-04-21T14:43:39.409Z,8.88
2023-04-21T14:46:06.756Z,7.40
2023-04-21T14:48:34.211Z,12.75
2023-04-21T14:51:01.442Z,8.48
2023-04-21T14:53:28.761Z,6.30
2023-04-21T14:55:56.151Z,7.47
2023-04-21T14:58:23.511Z,7.47
2023-04-21T15:00:51.128Z,10.18
2023-04-21T15:03:18.515Z,12.40
2023-04-21T15:05:46.054Z,7.03
2023-04-21T15:08:18.002Z,9.73
2023-04-21T15:10:45.905Z,7.00
2023-04-21T15:13:13.406Z,7.38
2023-04-21T15:15:41.315Z,9.90
2023-04-21T15:18:08.661Z,7.60
2023-04-21T15:20:44.424Z,10.40
2023-04-21T15:23:13.275Z,11.40
2023-04-21T15:25:40.719Z,10.00
2023-04-21T15:28:08.681Z,12.25
2023-04-21T15:30:36.175Z,8.73
2023-04-21T15:33:03.515Z,8.07
2023-04-21T15:35:31.039Z,10.88
2023-04-21T15:37:58.222Z,8.50
2023-04-21T15:40:25.635Z,8.55
2023-04-21T15:42:52.953Z,6.30
2023-04-21T15:45:20.263Z,13.55
2023-04-21T15:47:47.470Z,8.93
2023-04-21T15:50:14.849Z,10.10
2023-04-21T15:52:43.589Z,9.90
2023-04-21T15:55:13.976Z,12.07
2023-04-21T15:57:41.202Z,9.23
2023-04-21T16:00:12.749Z,10.05
2023-04-21T16:02:40.467Z,11.48
2023-04-21T16:05:09.108Z,11.95
2023-04-21T16:07:36.496Z,9.77
2023-04-21T16:10:04.189Z,6.70
2023-04-21T16:12:31.462Z,9.73
2023-04-21T16:15:09.283Z,7.60
2023-04-21T16:17:46.321Z,10.35
2023-04-21T16:20:13.879Z,6.47
2023-04-21T16:22:41.154Z,7.20
2023-04-21T16:25:10.688Z,10.05
2023-04-21T16:27:38.215Z,8.23
2023-04-21T16:30:08.120Z,9.48
2023-04-21T16:32:36.004Z,14.82
2023-04-21T16:35:10.007Z,9.90
2023-04-21T16:37:40.126Z,10.38
2023-04-21T16:40:08.984Z,9.77
2023-04-21T16:42:36.565Z,12.82
2023-04-21T16:45:04.775Z,7.53
2023-04-21T16:47:41.303Z,10.55
2023-04-21T16:50:12.203Z,8.98
2023-04-21T16:52:39.472Z,8.02
2023-04-21T16:55:07.484Z,10.52
2023-04-21T16:57:34.917Z,7.68
2023-04-21T17:00:05.642Z,6.28
2023-04-21T17:02:34.050Z,6.88
2023-04-21T17:05:01.459Z,6.85
2023-04-21T17:07:28.889Z,6.55
2023-04-21T17:09:56.126Z,6.40
2023-04-21T17:12:23.591Z,7.22
2023-04-21T17:14:50.842Z,7.53
2023-04-21T17:17:18.495Z,7.25
2023-04-21T17:19:45.824Z,6.53
2023-04-21T17:22:13.184Z,4.63
2023-04-21T17:24:52.338Z,9.05
2023-04-21T17:27:21.580Z,7.43
2023-04-21T17:29:49.119Z,5.47
2023-04-21T17:32:16.556Z,5.93
2023-04-21T17:34:44.096Z,8.40
2023-04-21T17:37:11.304Z,5.82
2023-04-21T17:39:38.746Z,5.00
2023-04-21T17:42:06.557Z,5.50
2023-04-21T17:44:33.842Z,5.43
2023-04-21T17:47:02.091Z,4.45
2023-04-21T17:49:29.319Z,4.95
2023-04-21T17:51:56.834Z,6.82
2023-04-21T17:54:25.121Z,6.53
2023-04-21T17:56:52.291Z,4.10
2023-04-21T17:59:19.807Z,4.22
2023-04-21T18:01:47.279Z,4.82
2023-04-21T18:04:16.565Z,6.20
2023-04-21T18:06:44.349Z,4.88
2023-04-21T18:09:11.821Z,5.30
2023-04-21T18:11:39.221Z,6.95
2023-04-21T18:14:07.082Z,9.02
2023-04-21T18:16:34.436Z,11.50
2023-04-21T18:19:01.822Z,11.23
2023-04-21T18:21:29.126Z,11.10
2023-04-21T18:23:59.088Z,10.70
2023-04-21T18:26:26.905Z,13.23
2023-04-21T18:28:58.371Z,8.13
2023-04-21T18:31:26.407Z,11.00
2023-04-21T18:33:53.749Z,10.45
2023-04-21T18:36:21.122Z,10.63
2023-04-21T18:38:48.337Z,7.60
2023-04-21T18:41:16.059Z,9.52
2023-04-21T18:43:43.541Z,7.30
2023-04-21T18:46:11.263Z,8.05
2023-04-21T18:48:38.452Z,10.35
2023-04-21T18:51:05.940Z,12.88
2023-04-21T18:53:33.572Z,11.20
2023-04-21T18:56:00.787Z,11.80
2023-04-21T18:58:28.052Z,11.10
2023-04-21T19:00:56.042Z,7.70
2023-04-21T19:03:25.206Z,9.23
2023-04-21T19:05:52.539Z,9.48
2023-04-21T19:08:30.098Z,8.70
2023-04-21T19:11:05.844Z,8.15
2023-04-21T19:13:33.101Z,10.50
2023-04-21T19:16:01.285Z,11.13
2023-04-21T19:18:29.078Z,12.23
2023-04-21T19:20:59.292Z,11.75
2023-04-21T19:23:26.634Z,8.55
2023-04-21T19:25:56.101Z,9.52
2023-04-21T19:28:23.525Z,9.30
2023-04-21T19:30:50.724Z,9.15
2023-04-21T19:33:17.945Z,8.57
2023-04-21T19:35:45.628Z,11.25
2023-04-21T19:38:12.928Z,11.35
2023-04-21T19:40:42.178Z,9.43
2023-04-21T19:43:09.408Z,13.18
2023-04-21T19:45:37.612Z,12.35
2023-04-21T19:48:06.963Z,12.60
2023-04-21T19:50:35.776Z,8.65
2023-04-21T19:53:03.581Z,12.52
2023-04-21T19:55:30.965Z,9.32
2023-04-21T19:57:58.202Z,9.50
2023-04-21T20:00:26.054Z,6.97
2023-04-21T20:02:53.564Z,7.07
2023-04-21T20:05:21.291Z,6.80
2023-04-21T20:07:48.910Z,16.02
2023-04-21T20:10:17.395Z,9.48
2023-04-21T20:12:45.085Z,10.43
2023-04-21T20:15:13.115Z,7.93
2023-04-21T20:17:41.760Z,6.93
2023-04-21T20:20:09.675Z,12.35
2023-04-21T20:22:37.001Z,9.00
2023-04-21T20:25:04.867Z,5.97
2023-04-21T20:27:32.398Z,8.38
2023-04-21T20:29:59.649Z,8.82
2023-04-21T20:32:26.911Z,8.85
2023-04-21T20:34:54.191Z,5.50
2023-04-21T20:37:23.016Z,8.05
2023-04-21T20:39:50.346Z,6.75
2023-04-21T20:42:19.174Z,6.68
2023-04-21T20:44:47.227Z,5.78
2023-04-21T20:47:14.640Z,6.47
2023-04-21T20:49:43.636Z,8.98
2023-04-21T20:52:11.126Z,8.98
2023-04-21T20:54:38.702Z,12.18
2023-04-21T20:57:07.459Z,6.60
2023-04-21T20:59:35.092Z,10.30
2023-04-21T21:02:02.837Z,12.68
2023-04-21T21:04:30.236Z,7.55
2023-04-21T21:06:57.499Z,10.98
2023-04-21T21:09:25.320Z,12.88
2023-04-21T21:11:52.574Z,9.88
2023-04-21T21:14:20.241Z,11.93
2023-04-21T21:16:47.504Z,14.00
2023-04-21T21:19:14.758Z,21.20
2023-04-21T21:21:42.038Z,11.40
2023-04-21T21:24:09.361Z,11.35
2023-04-21T21:26:36.583Z,12.20
2023-04-21T21:29:04.776Z,7.87
2023-04-21T21:31:32.325Z,10.25
2023-04-21T21:34:01.115Z,10.02
2023-04-21T21:36:28.289Z,8.68
2023-04-21T21:38:55.461Z,9.07
2023-04-21T21:41:23.172Z,7.65
2023-04-21T21:43:50.843Z,8.60
2023-04-21T21:46:18.776Z,8.75
2023-04-21T21:48:46.448Z,9.52
2023-04-21T21:51:13.788Z,6.72
2023-04-21T21:53:41.009Z,8.73
2023-04-21T21:56:08.194Z,9.07
2023-04-21T21:58:35.522Z,8.82
2023-04-21T22:01:02.735Z,7.32
2023-04-21T22:03:30.462Z,7.28
2023-04-21T22:05:57.886Z,10.82
2023-04-21T22:08:25.938Z,4.95
2023-04-21T22:10:53.169Z,6.88
2023-04-21T22:13:20.492Z,6.68
2023-04-21T22:15:47.712Z,11.80
2023-04-21T22:18:14.918Z,10.27
2023-04-21T22:20:42.073Z,6.85
2023-04-21T22:23:09.298Z,8.65
2023-04-21T22:25:36.979Z,7.40
2023-04-21T22:28:04.342Z,6.80
2023-04-21T22:30:31.528Z,9.02
2023-04-21T22:32:58.826Z,8.32
2023-04-21T22:35:26.017Z,6.15
2023-04-21T22:37:53.224Z,5.35
2023-04-21T22:40:20.528Z,9.25
2023-04-21T22:42:47.742Z,6.25
2023-04-21T22:45:14.950Z,6.57
2023-04-21T22:47:42.316Z,7.95
2023-04-21T22:50:10.242Z,11.82
2023-04-21T22:52:37.554Z,5.05
2023-04-21T22:55:05.371Z,7.15
2023-04-21T22:57:32.874Z,7.93
2023-04-21T23:00:00.394Z,5.28
2023-04-21T23:02:27.705Z,5.45
2023-04-21T23:04:55.017Z,8.00
2023-04-21T23:07:22.223Z,8.85
2023-04-21T23:09:49.441Z,5.10
2023-04-21T23:12:16.680Z,6.38
2023-04-21T23:14:44.325Z,5.47
2023-04-21T23:17:11.465Z,6.43
2023-04-21T23:19:39.337Z,4.57
2023-04-21T23:22:06.891Z,5.23
2023-04-21T23:24:34.333Z,7.28
2023-04-21T23:27:02.105Z,6.60
2023-04-21T23:29:29.330Z,7.05
2023-04-21T23:31:56.605Z,6.75
2023-04-21T23:34:23.905Z,4.97
2023-04-21T23:36:51.118Z,7.78
2023-04-21T23:39:21.401Z,4.38
2023-04-21T23:41:48.847Z,5.85
2023-04-21T23:44:16.158Z,4.28
2023-04-21T23:46:43.340Z,5.38
2023-04-21T23:49:11.526Z,5.25
2023-04-21T23:51:38.748Z,4.73
2023-04-21T23:54:06.077Z,7.20
2023-04-21T23:56:33.370Z,6.40
2023-04-21T23:59:00.822Z,5.38
